Detroit, MI (48206)

10:59 AM EST on December 21, 2014 (GMT -0500)
Dearborn | Change Station
CLOSE
Current Station
Personal Weather Station
Location: Dearborn, MI
Elevation: 597 ft
Nearby Weather Stations

Elev 597 ft 42.32 °N, 83.17 °W | Updated 13 seconds ago

Mostly Cloudy
Mostly Cloudy
34.2 °F
Feels Like 31 °F
N
4.0
Wind Variable Wind from SSE
Gusts 7.0 mph

Today
High -- | Low -- °F
--% Chance of Precip.
Yesterday
High -- | Low -- °F
Precip. -- in
7:58 AM 5:02 PM
Waning Crescent, 0% visible
Pressure 30.34 in
Visibility 8.0 miles
Clouds Clear
Windchill 31 °F
Dew Point 25 °F
Humidity 70%
Rainfall 0.00 in
Snow Depth Not available.
UV 1.1 out of 12
Pollen .10 out of 12
Air Quality Not available.
Flu Activity Not available.
METAR KDET 211553Z AUTO 17004KT 8SM CLR 01/M04 A3032 RMK AO2 SLP274 T00111044 $

More Conditions Fewer Conditions

Pressure 30.34 in
Visibility 8.0 miles
Clouds Clear
Windchill 31 °F
Dew Point 25 °F
Humidity 70%
Rainfall 0.00 in
Snow Depth Not available.
UV 1.1 out of 12
Pollen .10 out of 12
Air Quality Not available.
Flu Activity Not available.
METAR KDET 211553Z AUTO 17004KT 8SM CLR 01/M04 A3032 RMK AO2 SLP274 T00111044 $

More Conditions Fewer Conditions

10-Day Weather Forecast

Almanac

Astronomy

Dec. 21, 2014 Rise Set
Actual Time
Civil Twilight
Nautical Twilight
Astronomical Twilight
Moon
Length of Visible Light
Length of Day
Tomorrow will be .
, % of the Moon is Illuminated

Today's Extremes

State Highs State Lows

Community

WunderPhotos

Upload Photos

1,779,412 photos uploaded!

WunderBlogs® & News

Nearby

Air Quality

  Air Quality AQ Index Pollutant
Not available.

Snow Depth

Station Depth Elevation

Earthquake Activity

City Distance Mag. Time & Date
Minimum magnitude displayed is 2.5.

Coastal Water Temperatures

Place Temperature

Nearby Weather Stations